Time;durP1;ratioP1;P1;durP2;ratioP2;P2;SDS_P1;SDS_P2;PMS_P1;PMS_P2;Temp;Humidity;BMP_temperature;BMP_pressure;BME280_temperature;BME280_humidity;BME280_pressure;Samples;Min_cycle;Max_cycle;Signal;HPM_P1;HPM_P2
2021/04/30 00:00:15;;;;;;;6.13;2.60;;;;;;;30.50;17.39;97223.25;5029673;28;20053;-85
2021/04/30 00:02:41;;;;;;;6.00;2.70;;;;;;;30.63;17.33;97223.66;5042869;28;20021;-84
2021/04/30 00:05:09;;;;;;;3.22;2.53;;;;;;;30.86;17.37;97216.13;5044743;28;20041;-85
2021/04/30 00:07:36;;;;;;;4.13;2.53;;;;;;;30.48;17.77;97211.66;5049684;28;20025;-84
2021/04/30 00:10:03;;;;;;;4.40;2.67;;;;;;;30.58;17.46;97219.50;5038081;28;20115;-85
2021/04/30 00:12:29;;;;;;;5.47;2.97;;;;;;;30.60;17.63;97218.97;5042094;28;20029;-85
2021/04/30 00:14:55;;;;;;;5.32;2.80;;;;;;;29.00;20.04;97249.34;5042783;28;20056;-85
2021/04/30 00:17:21;;;;;;;4.18;2.65;;;;;;;29.12;19.76;97253.91;5048150;28;20090;-85
2021/04/30 00:19:47;;;;;;;5.60;2.65;;;;;;;29.46;19.38;97246.78;5049291;28;20048;-85
2021/04/30 00:22:13;;;;;;;6.30;3.25;;;;;;;29.73;19.30;97254.13;5046962;28;20021;-85
2021/04/30 00:24:39;;;;;;;3.67;2.50;;;;;;;29.69;18.87;97247.88;5047368;28;20085;-85
2021/04/30 00:27:06;;;;;;;4.18;2.65;;;;;;;29.02;19.96;97246.78;5053226;28;20029;-84
2021/04/30 00:29:32;;;;;;;5.32;2.17;;;;;;;28.90;19.49;97247.88;5046081;28;20033;-84
2021/04/30 00:31:58;;;;;;;4.35;2.78;;;;;;;29.05;19.57;97254.31;5036874;28;20033;-84
2021/04/30 00:34:24;;;;;;;8.80;2.83;;;;;;;29.48;18.59;97254.78;5050435;28;20508;-84
2021/04/30 00:36:51;;;;;;;3.85;2.53;;;;;;;29.76;18.52;97250.31;5058147;28;20371;-84
2021/04/30 00:39:17;;;;;;;3.35;2.40;;;;;;;29.91;18.33;97249.03;5057548;28;20409;-84
2021/04/30 00:41:43;;;;;;;4.80;2.47;;;;;;;29.70;18.83;97261.56;5055605;28;20454;-84
2021/04/30 00:44:10;;;;;;;4.00;2.33;;;;;;;29.50;19.46;97267.13;5059955;28;20029;-84
2021/04/30 00:46:37;;;;;;;3.25;2.22;;;;;;;29.18;19.71;97276.66;5062636;28;20028;-84
2021/04/30 00:49:04;;;;;;;3.83;2.90;;;;;;;29.08;20.26;97281.59;5061074;28;20029;-84
2021/04/30 00:51:31;;;;;;;4.45;2.38;;;;;;;29.15;20.03;97294.56;5053558;28;20029;-84
2021/04/30 00:53:58;;;;;;;5.40;2.63;;;;;;;29.33;19.62;97309.31;5059142;28;20425;-84
2021/04/30 00:56:25;;;;;;;5.47;2.88;;;;;;;29.39;19.67;97335.63;5064210;28;20461;-84
2021/04/30 00:58:52;;;;;;;6.55;4.53;;;;;;;28.46;21.81;97343.03;5057349;28;20040;-84
2021/04/30 01:01:19;;;;;;;9.10;4.18;;;;;;;28.67;21.28;97320.13;5045707;28;20053;-84
2021/04/30 01:03:47;;;;;;;6.05;4.07;;;;;;;25.23;28.08;97328.88;5055503;28;20082;-84
2021/04/30 01:06:14;;;;;;;11.85;6.97;;;;;;;23.64;31.38;97337.25;5064865;28;20024;-85
2021/04/30 01:08:40;;;;;;;11.10;5.60;;;;;;;22.87;32.94;97343.16;5056706;28;20041;-86
2021/04/30 01:11:06;;;;;;;9.98;6.15;;;;;;;24.85;30.48;97350.81;5051366;28;20470;-86
2021/04/30 01:13:33;;;;;;;7.65;4.95;;;;;;;26.07;28.74;97344.41;5043013;28;20124;-86
2021/04/30 01:16:00;;;;;;;9.23;5.22;;;;;;;26.66;27.38;97360.00;5058212;28;20443;-86
2021/04/30 01:18:26;;;;;;;11.73;5.50;;;;;;;26.71;27.74;97348.91;5063861;28;20044;-86
2021/04/30 01:20:52;;;;;;;10.70;6.18;;;;;;;26.59;28.12;97366.72;5055293;28;20029;-86
2021/04/30 01:23:19;;;;;;;6.50;4.05;;;;;;;27.69;26.13;97375.88;5063218;28;20531;-86
2021/04/30 01:25:45;;;;;;;7.45;4.85;;;;;;;28.56;24.55;97384.84;5049484;28;20117;-86
2021/04/30 01:28:11;;;;;;;7.22;5.10;;;;;;;29.01;24.05;97392.22;5051463;28;20025;-87
2021/04/30 01:30:40;;;;;;;8.52;4.95;;;;;;;29.25;24.53;97395.81;5055382;28;20075;-87
2021/04/30 01:33:18;;;;;;;6.35;4.25;;;;;;;29.53;23.30;97398.34;5046125;28;20029;-87
2021/04/30 01:35:45;;;;;;;9.07;5.13;;;;;;;29.88;22.94;97388.69;5052414;28;20033;-86
2021/04/30 01:38:12;;;;;;;5.95;3.78;;;;;;;29.78;23.67;97375.16;5056298;28;20108;-86
2021/04/30 01:40:38;;;;;;;7.05;4.28;;;;;;;29.96;22.47;97372.88;5048318;28;20115;-86
2021/04/30 01:43:09;;;;;;;6.03;4.13;;;;;;;30.22;22.11;97370.19;5060503;28;20387;-85
2021/04/30 01:45:42;;;;;;;8.30;4.55;;;;;;;30.56;22.07;97363.72;5060253;28;20033;-85
2021/04/30 01:48:12;;;;;;;7.28;4.10;;;;;;;30.33;22.19;97361.88;5051211;28;20029;-86
2021/04/30 01:50:39;;;;;;;6.72;4.78;;;;;;;30.37;22.06;97361.66;5054491;28;20074;-85
2021/04/30 01:53:08;;;;;;;5.97;4.00;;;;;;;30.42;22.21;97360.94;5039883;28;20040;-85
2021/04/30 01:55:34;;;;;;;5.38;3.55;;;;;;;30.52;21.67;97368.81;5034535;28;20459;-85
2021/04/30 01:58:02;;;;;;;5.97;3.42;;;;;;;30.74;21.53;97360.59;5047866;28;20033;-85
2021/04/30 02:00:28;;;;;;;8.00;3.72;;;;;;;30.59;21.79;97357.06;5050680;28;20110;-85
2021/04/30 02:02:57;;;;;;;7.15;4.60;;;;;;;30.46;22.45;97367.16;5062204;28;20036;-86
2021/04/30 02:05:26;;;;;;;7.07;3.92;;;;;;;30.34;22.16;97354.16;5060109;28;20025;-86
2021/04/30 02:07:53;;;;;;;6.43;4.32;;;;;;;30.58;21.85;97360.38;5046186;28;20436;-86
2021/04/30 02:10:23;;;;;;;6.05;3.65;;;;;;;30.66;21.60;97345.31;5061750;28;20055;-86
2021/04/30 02:12:51;;;;;;;7.10;3.60;;;;;;;30.77;21.71;97344.66;5066201;28;20108;-86
2021/04/30 02:15:20;;;;;;;4.30;2.95;;;;;;;30.81;21.40;97335.94;5062197;28;20133;-86
2021/04/30 02:17:46;;;;;;;3.55;2.50;;;;;;;30.96;21.07;97337.44;5054748;28;20033;-86
2021/04/30 02:20:16;;;;;;;5.38;3.05;;;;;;;31.11;21.26;97343.75;5058179;28;20032;-86
2021/04/30 02:22:42;;;;;;;6.35;3.42;;;;;;;31.08;21.04;97339.13;5059561;28;20072;-86
2021/04/30 02:25:10;;;;;;;6.68;3.65;;;;;;;31.09;21.35;97340.66;5063589;28;20090;-85
2021/04/30 02:27:37;;;;;;;5.13;4.18;;;;;;;30.69;22.02;97344.28;5060259;28;20029;-86
2021/04/30 02:30:05;;;;;;;3.90;3.28;;;;;;;30.71;21.90;97338.91;5063111;28;20029;-85
2021/04/30 02:32:33;;;;;;;5.55;4.03;;;;;;;30.49;22.67;97347.13;5065079;28;20022;-86
2021/04/30 02:35:00;;;;;;;5.28;3.35;;;;;;;30.27;22.48;97352.47;5064342;28;20036;-86
2021/04/30 02:37:26;;;;;;;6.07;3.90;;;;;;;30.31;22.96;97360.78;5054587;28;20435;-86
2021/04/30 02:39:52;;;;;;;6.50;3.63;;;;;;;30.36;22.56;97363.72;5062742;28;20033;-86
2021/04/30 02:42:19;;;;;;;4.00;2.22;;;;;;;30.00;23.06;97362.13;5056835;28;20060;-85
2021/04/30 02:44:46;;;;;;;4.53;2.78;;;;;;;30.40;22.24;97364.28;5057790;28;20454;-86
2021/04/30 02:47:13;;;;;;;6.47;3.47;;;;;;;30.54;22.21;97362.66;5054287;28;20029;-86
2021/04/30 02:49:42;;;;;;;4.07;2.65;;;;;;;30.52;22.42;97368.03;5059535;28;20021;-86
2021/04/30 02:52:09;;;;;;;4.18;2.53;;;;;;;30.46;22.24;97365.13;5053241;28;20029;-86
2021/04/30 02:54:36;;;;;;;4.53;2.42;;;;;;;30.44;22.31;97372.56;5061424;28;20028;-85
2021/04/30 02:57:04;;;;;;;5.93;3.30;;;;;;;30.14;23.42;97368.22;5054968;28;20033;-86
2021/04/30 02:59:30;;;;;;;5.60;3.15;;;;;;;30.23;22.84;97368.88;5063727;28;20053;-85
2021/04/30 03:01:56;;;;;;;4.03;3.03;;;;;;;30.43;22.50;97366.13;5059250;28;20121;-86
2021/04/30 03:04:23;;;;;;;3.83;2.95;;;;;;;30.19;22.86;97362.66;5068590;28;20028;-86
2021/04/30 03:06:50;;;;;;;3.15;2.50;;;;;;;30.15;22.63;97364.94;5056400;28;20037;-85
2021/04/30 03:09:16;;;;;;;5.07;3.83;;;;;;;30.07;23.45;97363.78;5061412;28;20036;-85
2021/04/30 03:11:43;;;;;;;5.05;3.10;;;;;;;30.13;23.17;97361.03;5055530;28;20030;-86
2021/04/30 03:14:09;;;;;;;4.63;3.90;;;;;;;30.37;23.03;97365.25;5069680;28;20060;-85
2021/04/30 03:16:35;;;;;;;6.22;3.30;;;;;;;30.52;22.39;97354.66;5056125;28;20033;-86
2021/04/30 03:19:01;;;;;;;5.78;3.38;;;;;;;30.92;21.55;97353.88;5055356;28;20037;-85
2021/04/30 03:21:28;;;;;;;3.97;2.72;;;;;;;31.25;20.99;97353.47;5053287;28;20104;-86
2021/04/30 03:23:54;;;;;;;4.63;2.85;;;;;;;31.35;21.27;97357.69;5061567;28;20047;-86
2021/04/30 03:26:20;;;;;;;5.60;2.85;;;;;;;31.38;20.88;97365.19;5068171;28;20060;-85
2021/04/30 03:28:46;;;;;;;4.05;2.47;;;;;;;31.46;21.01;97363.47;5065930;28;20037;-85
2021/04/30 03:31:13;;;;;;;5.05;3.05;;;;;;;31.33;21.52;97366.69;5050465;28;20032;-86
2021/04/30 03:33:39;;;;;;;5.32;3.92;;;;;;;31.07;21.53;97370.78;5053232;28;20406;-86
2021/04/30 03:36:06;;;;;;;3.45;2.25;;;;;;;31.05;21.94;97365.63;5050692;28;20108;-86
2021/04/30 03:38:35;;;;;;;3.88;2.75;;;;;;;30.86;22.72;97372.84;5053587;28;20068;-86
2021/04/30 03:41:02;;;;;;;4.55;2.85;;;;;;;30.68;22.48;97378.81;5050827;28;20052;-86
2021/04/30 03:43:28;;;;;;;5.32;3.85;;;;;;;30.39;23.13;97385.38;5052472;28;20457;-86
2021/04/30 03:45:54;;;;;;;4.40;3.03;;;;;;;30.66;22.16;97392.69;5053143;28;20190;-86
2021/04/30 03:48:22;;;;;;;5.80;4.03;;;;;;;30.88;22.71;97387.31;5050936;28;20048;-87
2021/04/30 03:50:48;;;;;;;4.28;2.67;;;;;;;30.84;22.01;97394.47;5051108;28;20038;-87
2021/04/30 03:53:14;;;;;;;3.90;2.50;;;;;;;31.14;21.60;97398.72;5050632;28;20537;-87
2021/04/30 03:55:41;;;;;;;4.70;3.28;;;;;;;31.48;21.16;97397.84;5052717;28;20064;-87
2021/04/30 03:58:07;;;;;;;4.82;3.17;;;;;;;31.70;21.11;97402.91;5053363;28;20024;-86
2021/04/30 04:00:33;;;;;;;6.07;2.75;;;;;;;31.72;20.68;97406.81;5053044;28;20067;-87
2021/04/30 04:02:59;;;;;;;3.63;2.80;;;;;;;31.76;20.98;97401.72;5053242;28;20036;-86
2021/04/30 04:05:25;;;;;;;3.88;2.63;;;;;;;31.78;20.81;97404.03;5051812;28;20040;-86
2021/04/30 04:07:51;;;;;;;4.35;2.55;;;;;;;31.69;21.02;97402.16;5053632;28;20036;-87
2021/04/30 04:10:17;;;;;;;4.32;2.53;;;;;;;31.54;21.18;97412.06;5053403;28;20032;-87
2021/04/30 04:12:43;;;;;;;5.97;2.55;;;;;;;31.42;21.59;97411.13;5046751;28;20037;-87
2021/04/30 04:15:10;;;;;;;2.70;2.25;;;;;;;31.27;21.74;97416.16;5049176;28;20079;-87
2021/04/30 04:17:36;;;;;;;3.03;2.53;;;;;;;31.28;21.56;97417.69;5047977;28;20039;-86
2021/04/30 04:20:06;;;;;;;2.92;2.25;;;;;;;31.34;21.91;97424.22;5050747;28;20025;-88
2021/04/30 04:22:32;;;;;;;2.45;1.80;;;;;;;31.05;22.51;97435.75;5048194;28;20041;-87
2021/04/30 04:24:59;;;;;;;3.88;1.83;;;;;;;30.90;22.16;97440.72;5052120;28;20112;-87
2021/04/30 04:27:25;;;;;;;2.42;1.60;;;;;;;31.05;22.00;97438.56;5051483;28;20040;-86
2021/04/30 04:29:51;;;;;;;2.13;1.65;;;;;;;31.26;21.96;97437.28;5059784;28;20032;-87
2021/04/30 04:32:17;;;;;;;2.50;1.90;;;;;;;30.87;22.66;97448.13;5053415;28;20039;-86
2021/04/30 04:34:43;;;;;;;4.95;1.52;;;;;;;30.88;22.37;97449.69;5051423;28;20107;-86
2021/04/30 04:37:09;;;;;;;2.00;1.52;;;;;;;30.99;22.63;97454.75;5046310;28;20492;-86
2021/04/30 04:39:35;;;;;;;1.88;1.45;;;;;;;30.95;22.75;97457.03;5048172;28;20037;-86
2021/04/30 04:42:06;;;;;;;1.25;1.00;;;;;;;30.99;22.24;97461.19;5046601;28;20051;-87
2021/04/30 04:44:33;;;;;;;1.65;1.40;;;;;;;31.28;21.83;97454.56;5040804;28;20030;-86
2021/04/30 04:47:00;;;;;;;1.85;1.70;;;;;;;31.42;22.06;97454.53;5055918;28;20025;-87
2021/04/30 04:49:27;;;;;;;3.17;2.17;;;;;;;31.17;22.29;97455.25;5038941;28;20098;-87
2021/04/30 04:51:53;;;;;;;3.55;2.22;;;;;;;31.05;22.38;97466.94;5044902;28;20037;-87
2021/04/30 04:54:21;;;;;;;4.30;2.05;;;;;;;30.94;22.64;97466.78;5040436;28;20113;-87
2021/04/30 04:56:47;;;;;;;2.20;1.70;;;;;;;31.18;22.27;97462.44;5039379;28;20045;-87
2021/04/30 04:59:13;;;;;;;2.55;1.33;;;;;;;31.01;22.42;97472.03;5046884;28;20074;-87
2021/04/30 05:01:39;;;;;;;1.92;1.60;;;;;;;30.73;23.44;97478.09;5050389;28;20037;-88
2021/04/30 05:04:06;;;;;;;1.98;1.55;;;;;;;30.64;22.95;97481.03;5050752;28;20237;-87
2021/04/30 05:06:32;;;;;;;1.48;1.27;;;;;;;30.77;22.68;97477.88;5044929;28;20171;-86
2021/04/30 05:08:58;;;;;;;1.80;1.33;;;;;;;30.94;22.59;97483.81;5047192;28;20044;-87
2021/04/30 05:11:24;;;;;;;2.63;1.63;;;;;;;30.68;23.48;97481.63;5040907;28;20434;-86
2021/04/30 05:13:50;;;;;;;4.18;2.90;;;;;;;30.64;23.23;97475.38;5037481;28;20034;-85
2021/04/30 05:16:16;;;;;;;3.05;2.47;;;;;;;30.85;22.73;97464.06;5039879;28;20029;-86
2021/04/30 05:18:43;;;;;;;7.63;5.68;;;;;;;30.99;22.77;97475.38;5054805;28;20068;-86
2021/04/30 05:21:11;;;;;;;9.95;7.00;;;;;;;31.04;22.41;97485.25;5042063;28;20033;-86
2021/04/30 05:23:38;;;;;;;11.43;8.23;;;;;;;30.78;23.26;97485.88;5053833;28;20115;-86
2021/04/30 05:26:05;;;;;;;8.60;5.72;;;;;;;30.65;23.38;97493.16;5040337;28;20127;-85
2021/04/30 05:28:32;;;;;;;4.85;3.30;;;;;;;30.68;23.14;97498.63;5040350;28;20035;-85
2021/04/30 05:30:58;;;;;;;3.92;2.85;;;;;;;30.73;23.10;97491.47;5046474;28;20045;-86
2021/04/30 05:33:25;;;;;;;4.72;3.00;;;;;;;30.89;22.97;97499.47;5044450;28;20409;-85
2021/04/30 05:35:51;;;;;;;3.30;2.42;;;;;;;31.16;22.35;97509.59;5046912;28;20108;-86
2021/04/30 05:38:18;;;;;;;3.13;2.53;;;;;;;31.45;22.24;97514.38;5045803;28;20029;-85
2021/04/30 05:40:44;;;;;;;3.60;2.90;;;;;;;31.66;21.91;97508.19;5045363;28;20147;-86
2021/04/30 05:43:11;;;;;;;1.98;1.77;;;;;;;31.61;22.44;97505.28;5047218;28;20033;-86
2021/04/30 05:45:40;;;;;;;3.10;2.13;;;;;;;31.44;22.76;97513.59;5048562;28;20772;-86
2021/04/30 05:48:07;;;;;;;2.30;2.00;;;;;;;31.36;23.46;97518.13;5046032;28;20033;-86
2021/04/30 05:50:34;;;;;;;2.85;2.30;;;;;;;31.50;22.77;97514.47;5050247;28;20512;-86
2021/04/30 05:53:00;;;;;;;2.72;2.03;;;;;;;31.54;22.90;97512.19;5052930;28;20033;-85
2021/04/30 05:55:27;;;;;;;2.25;1.88;;;;;;;31.76;22.92;97520.94;5050434;28;20036;-85
2021/04/30 05:57:53;;;;;;;3.22;2.05;;;;;;;31.95;23.10;97521.41;5056067;28;20467;-85
2021/04/30 06:00:20;;;;;;;2.22;2.03;;;;;;;31.44;23.52;97524.94;5047330;28;20552;-85
2021/04/30 06:02:46;;;;;;;4.13;2.85;;;;;;;31.21;23.98;97517.41;5054838;28;20033;-84
2021/04/30 06:05:13;;;;;;;3.53;3.15;;;;;;;31.43;23.92;97523.41;5050229;28;20513;-84
2021/04/30 06:07:39;;;;;;;3.65;2.95;;;;;;;31.68;24.07;97519.03;5056073;28;20394;-85
2021/04/30 06:10:06;;;;;;;2.85;2.50;;;;;;;31.72;23.58;97513.91;5047670;28;20143;-85
2021/04/30 06:12:32;;;;;;;2.35;2.03;;;;;;;30.90;24.28;97523.69;5048264;28;20037;-85
2021/04/30 06:15:00;;;;;;;2.63;2.15;;;;;;;30.80;24.73;97527.91;5044935;28;20033;-85
2021/04/30 06:17:26;;;;;;;3.67;1.80;;;;;;;30.71;24.79;97528.03;5050195;28;20041;-85
2021/04/30 06:19:52;;;;;;;2.50;1.77;;;;;;;30.81;24.68;97535.13;5046484;28;20032;-85
2021/04/30 06:22:18;;;;;;;2.00;1.38;;;;;;;31.09;24.10;97539.19;5044896;28;20106;-85
2021/04/30 06:24:45;;;;;;;4.40;1.75;;;;;;;31.14;24.09;97544.16;5049298;28;20033;-85
2021/04/30 06:27:11;;;;;;;2.75;1.60;;;;;;;31.10;23.92;97548.47;5045724;28;20032;-85
2021/04/30 06:29:37;;;;;;;5.85;2.47;;;;;;;30.41;24.47;97549.97;5046358;28;20029;-85
2021/04/30 06:32:03;;;;;;;5.78;2.85;;;;;;;30.01;24.75;97555.44;5047125;28;20030;-85
2021/04/30 06:34:29;;;;;;;4.10;2.60;;;;;;;29.76;25.20;97550.31;5049482;28;20559;-84
2021/04/30 06:36:56;;;;;;;4.57;2.75;;;;;;;28.52;26.42;97550.13;5041567;28;20107;-85
2021/04/30 06:39:23;;;;;;;3.70;2.25;;;;;;;28.37;27.37;97566.97;5049368;28;20058;-85
2021/04/30 06:41:50;;;;;;;3.67;2.63;;;;;;;28.44;27.01;97560.19;5043285;28;20104;-85
2021/04/30 06:44:16;;;;;;;2.67;2.05;;;;;;;28.87;26.17;97562.53;5049274;28;20036;-85
2021/04/30 06:46:42;;;;;;;3.30;2.78;;;;;;;28.89;26.51;97556.41;5042660;28;20091;-84
2021/04/30 06:49:08;;;;;;;5.20;2.78;;;;;;;28.32;26.75;97547.84;5046123;28;20044;-84
2021/04/30 06:51:35;;;;;;;4.13;3.20;;;;;;;28.70;26.80;97555.72;5045544;28;20041;-82
2021/04/30 06:54:01;;;;;;;4.68;3.05;;;;;;;28.70;26.30;97553.69;5045982;28;20060;-83
2021/04/30 06:56:32;;;;;;;4.15;2.10;;;;;;;29.33;25.92;97572.34;5051497;28;20041;-84
2021/04/30 06:58:58;;;;;;;3.80;3.03;;;;;;;29.24;25.72;97563.13;5051544;28;20021;-83
2021/04/30 07:01:25;;;;;;;4.13;2.88;;;;;;;28.57;26.26;97561.53;5053609;28;20466;-84
2021/04/30 07:03:51;;;;;;;3.55;2.53;;;;;;;28.25;26.42;97564.31;5045411;28;20043;-84
2021/04/30 07:06:20;;;;;;;3.15;2.83;;;;;;;28.40;26.51;97568.81;5051994;28;20477;-83
2021/04/30 07:08:47;;;;;;;5.50;2.85;;;;;;;28.57;25.82;97558.72;5054602;28;20029;-84
2021/04/30 07:11:13;;;;;;;3.35;3.03;;;;;;;29.12;25.16;97562.06;5048510;28;20112;-83
2021/04/30 07:13:39;;;;;;;4.53;2.75;;;;;;;29.82;24.93;97559.69;5055328;28;20111;-84
2021/04/30 07:16:06;;;;;;;2.85;2.40;;;;;;;29.69;24.99;97561.97;5055893;28;20060;-84
2021/04/30 07:18:33;;;;;;;4.38;3.50;;;;;;;28.58;25.29;97573.63;5064693;28;20390;-83
2021/04/30 07:21:00;;;;;;;7.15;3.35;;;;;;;26.67;27.99;97579.22;5063853;28;20078;-84
2021/04/30 07:23:27;;;;;;;4.88;4.20;;;;;;;27.33;27.55;97582.50;5058684;28;20033;-84
2021/04/30 07:25:53;;;;;;;7.50;4.55;;;;;;;26.43;28.26;97574.56;5059144;28;20025;-83
2021/04/30 07:28:20;;;;;;;4.65;3.83;;;;;;;27.53;27.04;97568.78;5049224;28;20068;-83
2021/04/30 07:30:46;;;;;;;6.50;4.40;;;;;;;27.34;27.78;97576.41;5059771;28;20029;-84
2021/04/30 07:33:12;;;;;;;6.63;4.30;;;;;;;28.01;26.64;97581.94;5050505;28;20471;-83
2021/04/30 07:35:40;;;;;;;6.85;3.97;;;;;;;28.05;26.15;97571.25;5051784;28;20029;-83
2021/04/30 07:38:07;;;;;;;6.47;3.90;;;;;;;27.75;25.70;97579.91;5052532;28;20771;-83
2021/04/30 07:40:34;;;;;;;5.93;3.88;;;;;;;28.29;26.12;97570.56;5048681;28;20029;-83
2021/04/30 07:43:00;;;;;;;4.97;3.88;;;;;;;28.81;25.78;97572.13;5049693;28;20029;-83
2021/04/30 07:45:26;;;;;;;3.83;3.40;;;;;;;28.59;24.81;97569.59;5046492;28;20033;-83
2021/04/30 07:47:52;;;;;;;5.22;4.28;;;;;;;28.70;24.47;97564.19;5050507;28;20440;-82
2021/04/30 07:50:19;;;;;;;5.45;3.30;;;;;;;29.20;24.14;97571.78;5057993;28;20111;-82
2021/04/30 07:52:45;;;;;;;7.80;4.20;;;;;;;28.15;24.58;97565.59;5044842;28;20498;-82
2021/04/30 07:55:11;;;;;;;3.17;2.63;;;;;;;28.62;25.23;97575.06;5040270;28;20037;-82
2021/04/30 07:57:38;;;;;;;5.38;2.97;;;;;;;29.31;24.11;97574.09;5044702;28;20029;-82
2021/04/30 08:00:06;;;;;;;7.28;3.72;;;;;;;28.81;24.04;97578.56;5050238;28;20045;-82
2021/04/30 08:02:32;;;;;;;4.43;3.33;;;;;;;29.64;22.46;97574.75;5051289;28;20107;-82
2021/04/30 08:04:58;;;;;;;5.40;3.13;;;;;;;28.85;22.80;97569.91;5050059;28;20033;-82
2021/04/30 08:07:25;;;;;;;3.38;3.05;;;;;;;29.19;23.86;97575.88;5043994;28;20041;-83
2021/04/30 08:09:53;;;;;;;4.20;2.67;;;;;;;30.31;22.43;97581.69;5044253;28;20391;-83
2021/04/30 08:12:20;;;;;;;3.35;2.10;;;;;;;31.35;22.07;97584.66;5051538;28;20146;-83
2021/04/30 08:14:46;;;;;;;2.95;1.92;;;;;;;32.08;21.35;97579.41;5053152;28;20119;-83
2021/04/30 08:17:13;;;;;;;4.78;2.05;;;;;;;32.57;20.34;97586.06;5051179;28;20033;-83
2021/04/30 08:19:39;;;;;;;4.40;2.10;;;;;;;32.75;19.84;97588.53;5050516;28;20029;-84
2021/04/30 08:22:05;;;;;;;5.70;3.35;;;;;;;31.68;20.03;97599.31;5056435;28;20032;-83
2021/04/30 08:24:31;;;;;;;4.20;2.55;;;;;;;30.88;21.04;97602.00;5060718;28;20111;-83
2021/04/30 08:26:58;;;;;;;5.57;2.75;;;;;;;29.75;22.19;97594.00;5050762;28;20021;-83
2021/04/30 08:29:24;;;;;;;3.20;2.60;;;;;;;29.73;21.98;97608.66;5046470;28;20025;-83
2021/04/30 08:31:51;;;;;;;3.92;1.88;;;;;;;30.01;21.95;97593.00;5047359;28;20029;-83
2021/04/30 08:34:17;;;;;;;3.47;2.35;;;;;;;29.90;22.08;97595.63;5048243;28;20035;-82
2021/04/30 08:36:43;;;;;;;4.55;2.75;;;;;;;28.86;22.80;97596.91;5045178;28;20479;-82
2021/04/30 08:39:10;;;;;;;3.03;2.42;;;;;;;29.15;23.30;97591.44;5049604;28;20037;-83
2021/04/30 08:41:37;;;;;;;2.65;2.08;;;;;;;30.40;21.73;97598.63;5052103;28;20437;-82
2021/04/30 08:44:04;;;;;;;6.25;3.20;;;;;;;29.85;22.04;97596.28;5047731;28;20086;-82
2021/04/30 08:46:31;;;;;;;3.35;2.63;;;;;;;29.64;22.92;97603.03;5041794;28;20040;-82
2021/04/30 08:49:05;;;;;;;5.63;3.42;;;;;;;28.05;25.08;97598.72;5038454;28;20025;-83
2021/04/30 08:51:32;;;;;;;3.20;2.67;;;;;;;28.85;24.00;97604.59;5044865;28;20033;-83
2021/04/30 08:53:59;;;;;;;3.58;2.50;;;;;;;30.09;22.71;97607.56;5051340;28;20491;-83
2021/04/30 08:56:25;;;;;;;5.43;3.35;;;;;;;29.55;22.38;97610.81;5041755;28;20055;-84
2021/04/30 08:58:53;;;;;;;3.75;2.88;;;;;;;29.51;23.04;97621.53;5051818;28;20036;-83
2021/04/30 09:01:20;;;;;;;3.30;2.65;;;;;;;28.90;24.02;97625.78;5042723;28;20069;-83
2021/04/30 09:03:51;;;;;;;2.53;2.25;;;;;;;28.85;23.16;97632.09;5042000;28;20041;-83
2021/04/30 09:06:35;;;;;;;3.33;2.97;;;;;;;29.59;22.51;97632.03;5054196;28;20066;-83
2021/04/30 09:09:13;;;;;;;2.22;2.03;;;;;;;30.35;21.94;97621.97;5057135;28;20031;-83
2021/04/30 09:11:41;;;;;;;2.60;2.25;;;;;;;30.69;20.29;97626.97;5046780;28;20538;-83
2021/04/30 09:14:35;;;;;;;3.65;3.17;;;;;;;30.94;21.24;97622.75;5045183;28;20065;-83
2021/04/30 09:17:15;;;;;;;2.53;2.33;;;;;;;30.31;22.24;97624.97;5051308;28;20115;-83
2021/04/30 09:19:47;;;;;;;3.28;1.50;;;;;;;31.59;21.03;97632.72;5061420;28;20401;-83
2021/04/30 09:22:17;;;;;;;4.88;2.30;;;;;;;30.92;20.28;97633.78;5047250;28;20021;-83
2021/04/30 09:24:48;;;;;;;3.45;2.00;;;;;;;30.65;21.03;97632.81;5059757;28;20080;-83
2021/04/30 09:27:26;;;;;;;2.97;1.98;;;;;;;31.11;20.17;97630.22;5050760;28;20021;-83
2021/04/30 09:29:52;;;;;;;2.15;1.60;;;;;;;31.85;19.95;97633.56;5047322;28;20021;-83
2021/04/30 09:32:18;;;;;;;2.60;1.75;;;;;;;32.18;19.43;97628.31;5051611;28;20068;-82
2021/04/30 09:34:45;;;;;;;1.42;1.30;;;;;;;32.72;19.18;97626.53;5051524;28;20033;-83
2021/04/30 09:37:17;;;;;;;1.80;1.48;;;;;;;32.63;19.23;97618.16;5049121;28;20102;-83
2021/04/30 09:39:55;;;;;;;2.30;2.00;;;;;;;32.03;19.19;97636.13;5043962;28;20122;-82
2021/04/30 09:42:25;;;;;;;3.08;1.77;;;;;;;30.47;20.93;97630.19;5046659;28;20119;-83
2021/04/30 09:44:54;;;;;;;2.92;2.10;;;;;;;31.06;20.81;97632.97;5047262;28;20104;-82
2021/04/30 09:47:29;;;;;;;3.53;2.22;;;;;;;31.79;20.28;97644.84;5042318;28;20112;-82
2021/04/30 09:49:57;;;;;;;2.35;1.80;;;;;;;32.53;20.28;97626.13;5051105;28;20048;-83
2021/04/30 09:52:25;;;;;;;1.60;1.50;;;;;;;32.91;19.18;97624.84;5049630;28;20029;-84
2021/04/30 09:54:53;;;;;;;1.45;1.33;;;;;;;33.62;18.45;97617.34;5045117;28;20039;-83
2021/04/30 09:57:23;;;;;;;2.20;1.98;;;;;;;32.92;18.90;97622.81;5049228;28;20087;-84
2021/04/30 10:00:11;;;;;;;2.17;1.50;;;;;;;31.78;18.43;97620.59;5050613;28;20503;-84
2021/04/30 10:02:38;;;;;;;2.15;1.27;;;;;;;32.08;19.58;97622.00;5049055;28;20091;-84
2021/04/30 10:05:22;;;;;;;3.25;1.73;;;;;;;32.71;19.10;97603.00;5050940;28;20063;-84
2021/04/30 10:07:48;;;;;;;1.52;1.38;;;;;;;32.99;18.53;97605.25;5060352;28;20033;-84
2021/04/30 10:10:17;;;;;;;1.30;1.10;;;;;;;32.34;19.88;97609.88;5058042;28;20086;-84
2021/04/30 10:12:45;;;;;;;1.70;1.10;;;;;;;32.36;19.45;97612.97;5051451;28;20037;-84
2021/04/30 10:15:14;;;;;;;2.03;1.48;;;;;;;32.64;18.92;97606.31;5048040;28;20064;-84
2021/04/30 10:17:41;;;;;;;2.55;1.40;;;;;;;32.56;19.35;97604.41;5053276;28;20041;-83
2021/04/30 10:20:12;;;;;;;1.40;1.30;;;;;;;33.06;17.99;97604.84;5050664;28;20107;-84
2021/04/30 10:22:42;;;;;;;1.52;1.42;;;;;;;33.17;18.48;97613.44;5054662;28;20037;-84
2021/04/30 10:25:10;;;;;;;2.50;1.45;;;;;;;32.71;18.76;97617.22;5052747;28;20048;-84
2021/04/30 10:27:45;;;;;;;1.95;1.52;;;;;;;31.96;18.97;97628.84;5050749;28;20029;-84
2021/04/30 10:30:24;;;;;;;1.38;1.27;;;;;;;33.09;18.36;97623.75;5051142;28;20127;-83
2021/04/30 10:32:54;;;;;;;1.40;1.30;;;;;;;33.00;17.89;97613.28;5051597;28;20029;-84
2021/04/30 10:35:44;;;;;;;1.60;1.50;;;;;;;32.70;19.57;97607.13;5052518;28;20037;-84
2021/04/30 10:38:15;;;;;;;1.25;1.00;;;;;;;32.14;19.86;97607.09;5050177;28;20029;-84
2021/04/30 10:41:00;;;;;;;;;;;;;;;32.31;16.50;97605.19;5048665;28;20029;-84
2021/04/30 10:43:27;;;;;;;2.75;1.83;;;;;;;31.11;18.42;97592.59;5056993;28;19925;-85
2021/04/30 10:46:05;;;;;;;2.25;1.58;;;;;;;31.75;19.58;97600.94;5053986;28;20116;-84
2021/04/30 10:48:33;;;;;;;1.40;1.17;;;;;;;33.48;18.40;97589.81;5054993;28;20037;-85
2021/04/30 10:51:14;;;;;;;1.70;1.20;;;;;;;34.30;17.57;97589.34;5054922;28;20128;-84
2021/04/30 10:53:41;;;;;;;1.40;0.93;;;;;;;34.86;16.70;97592.25;5054792;28;20382;-84
2021/04/30 10:56:28;;;;;;;1.10;1.00;;;;;;;33.93;15.58;97597.28;5048919;28;20021;-84
2021/04/30 10:58:54;;;;;;;1.67;1.20;;;;;;;31.98;18.72;97597.88;5044799;28;20063;-83
2021/04/30 11:01:28;;;;;;;1.27;1.15;;;;;;;33.38;18.15;97578.63;5045397;28;20529;-83
2021/04/30 11:04:09;;;;;;;1.60;1.20;;;;;;;32.80;16.56;97587.81;5051777;28;20025;-84
2021/04/30 11:06:41;;;;;;;3.13;1.30;;;;;;;30.91;20.56;97581.97;5052315;28;20044;-84
2021/04/30 11:09:28;;;;;;;1.73;1.30;;;;;;;30.12;20.67;97578.28;5050151;28;20025;-83
2021/04/30 11:11:58;;;;;;;1.63;1.30;;;;;;;29.94;21.28;97595.44;5046983;28;20091;-83
2021/04/30 11:14:26;;;;;;;3.22;1.75;;;;;;;30.77;19.93;97591.25;5048536;28;20083;-83
2021/04/30 11:16:54;;;;;;;3.30;1.75;;;;;;;31.05;18.92;97606.66;5044767;28;20038;-83
2021/04/30 11:19:29;;;;;;;2.22;2.00;;;;;;;29.02;21.22;97602.19;5050757;28;20033;-82
2021/04/30 11:22:09;;;;;;;1.98;1.80;;;;;;;28.34;22.29;97592.53;5048184;28;20032;-82
2021/04/30 11:24:36;;;;;;;4.55;2.55;;;;;;;29.80;19.83;97571.50;5051355;28;20033;-81
2021/04/30 11:27:11;;;;;;;2.83;2.40;;;;;;;31.32;18.99;97583.59;5048357;28;20115;-81
2021/04/30 11:29:38;;;;;;;2.53;2.33;;;;;;;31.10;19.91;97586.13;5046732;28;20029;-81
2021/04/30 11:32:25;;;;;;;2.17;1.42;;;;;;;32.74;18.24;97587.75;5053301;28;20032;-81
2021/04/30 11:34:58;;;;;;;3.28;2.30;;;;;;;31.22;18.25;97587.84;5064525;28;20037;-83
2021/04/30 11:37:26;;;;;;;2.70;1.67;;;;;;;33.21;17.55;97585.53;5048762;28;20502;-84